UAE77K LCLK-UBBB
Flight info
| Callsign | UAE77K |
|---|---|
| Flight time | 2h 7m |
| Altitude | 38000 |
| Route | RUDER M13 BAPAX DCT GAZ/N0485F390 UW716 DYB UW73 BAYIR UM688 ULTED UT36 DERIL UG8 ALRAM G208 UMH A422 PARSU N59 INSAN |
| Aircraft | B772/H-SDE2E3FGHIJ3J5M1P2RWXYZ/LB1D1 |
Departure
| Time | 2025-09-05 10:37 |
|---|---|
| Airport | Larnaca International Airport (LCLK) |
Arrival
| Time | 2025-09-05 12:44 |
|---|---|
| Airport | Heydar Aliyev International Airport (UBBB) |
| Time | Latitude | Longitude | Altitude | Speed | Heading |
|---|---|---|---|---|---|
| 2025-09-05 10:02 | 34.86902 | 33.61211 | 20 ft | 0 kts | 294° |
| 2025-09-05 10:19 | 34.86893 | 33.61235 | 20 ft | 2 kts | 294° |
| 2025-09-05 10:20 | 34.86859 | 33.61262 | 20 ft | 2 kts | 20° |
| 2025-09-05 10:20 | 34.86837 | 33.61239 | 20 ft | 2 kts | 46° |
| 2025-09-05 10:20 | 34.86827 | 33.61226 | 20 ft | 2 kts | 43° |
| 2025-09-05 10:21 | 34.86809 | 33.61206 | 20 ft | 1 kts | 45° |
| 2025-09-05 10:23 | 34.86824 | 33.61224 | 20 ft | 3 kts | 45° |
| 2025-09-05 10:24 | 34.86890 | 33.61355 | 20 ft | 8 kts | 117° |
| 2025-09-05 10:24 | 34.86881 | 33.61425 | 20 ft | 9 kts | 69° |
| 2025-09-05 10:25 | 34.86978 | 33.61549 | 20 ft | 11 kts | 45° |
| 2025-09-05 10:25 | 34.87096 | 33.61694 | 20 ft | 12 kts | 45° |
| 2025-09-05 10:26 | 34.87230 | 33.61856 | 20 ft | 14 kts | 45° |
| 2025-09-05 10:26 | 34.87374 | 33.62032 | 20 ft | 15 kts | 45° |
| 2025-09-05 10:27 | 34.87530 | 33.62223 | 20 ft | 16 kts | 45° |
| 2025-09-05 10:28 | 34.87777 | 33.62525 | 20 ft | 17 kts | 46° |
| 2025-09-05 10:28 | 34.87950 | 33.62735 | 20 ft | 17 kts | 45° |
| 2025-09-05 10:29 | 34.88127 | 33.62952 | 20 ft | 18 kts | 45° |
| 2025-09-05 10:29 | 34.88218 | 33.63063 | 20 ft | 18 kts | 45° |
| 2025-09-05 10:29 | 34.88373 | 33.63251 | 20 ft | 10 kts | 46° |
| 2025-09-05 10:30 | 34.88407 | 33.63293 | 20 ft | 2 kts | 45° |
| 2025-09-05 10:30 | 34.88441 | 33.63342 | 20 ft | 4 kts | 70° |
| 2025-09-05 10:31 | 34.88443 | 33.63358 | 20 ft | 0 kts | 90° |
| 2025-09-05 10:32 | 34.88414 | 33.63420 | 20 ft | 0 kts | 134° |
| 2025-09-05 10:33 | 34.88407 | 33.63428 | 20 ft | 5 kts | 134° |
| 2025-09-05 10:34 | 34.88372 | 33.63551 | 20 ft | 7 kts | 111° |
| 2025-09-05 10:34 | 34.88325 | 33.63554 | 20 ft | 0 kts | 223° |
| 2025-09-05 10:35 | 34.88233 | 33.63441 | 20 ft | 47 kts | 225° |
| 2025-09-05 10:36 | 34.87188 | 33.62163 | 21 ft | 156 kts | 224° |
| 2025-09-05 10:36 | 34.85546 | 33.60089 | 936 ft | 180 kts | 223° |
| 2025-09-05 10:37 | 34.83684 | 33.57849 | 2107 ft | 203 kts | 224° |
| 2025-09-05 10:37 | 34.81033 | 33.56488 | 2995 ft | 235 kts | 171° |
| 2025-09-05 10:38 | 34.78739 | 33.59412 | 3515 ft | 273 kts | 98° |
| 2025-09-05 10:38 | 34.79656 | 33.63905 | 4587 ft | 280 kts | 69° |
| 2025-09-05 10:39 | 34.81093 | 33.68333 | 5737 ft | 285 kts | 68° |
| 2025-09-05 10:40 | 34.83300 | 33.75136 | 7398 ft | 292 kts | 68° |
| 2025-09-05 10:40 | 34.84042 | 33.77428 | 7928 ft | 294 kts | 68° |
| 2025-09-05 10:40 | 34.85556 | 33.82106 | 8965 ft | 299 kts | 68° |
| 2025-09-05 10:41 | 34.87090 | 33.86856 | 9968 ft | 305 kts | 68° |
| 2025-09-05 10:41 | 34.88689 | 33.91813 | 10438 ft | 331 kts | 68° |
| 2025-09-05 10:42 | 34.90444 | 33.97263 | 10606 ft | 361 kts | 68° |
| 2025-09-05 10:42 | 34.92301 | 34.03040 | 11445 ft | 365 kts | 68° |
| 2025-09-05 10:43 | 34.94515 | 34.08569 | 12345 ft | 370 kts | 51° |
| 2025-09-05 10:43 | 34.98491 | 34.12511 | 13345 ft | 372 kts | 23° |
| 2025-09-05 10:44 | 35.03486 | 34.13785 | 14440 ft | 373 kts | 357° |
| 2025-09-05 10:44 | 35.08718 | 34.13700 | 15713 ft | 380 kts | 358° |
| 2025-09-05 10:45 | 35.14041 | 34.13867 | 16939 ft | 389 kts | 359° |
| 2025-09-05 10:45 | 35.19463 | 34.14142 | 18120 ft | 397 kts | 359° |
| 2025-09-05 10:46 | 35.25000 | 34.14469 | 19317 ft | 404 kts | 359° |
| 2025-09-05 10:46 | 35.30664 | 34.14823 | 20493 ft | 411 kts | 359° |
| 2025-09-05 10:47 | 35.36372 | 34.15190 | 21641 ft | 417 kts | 359° |
| 2025-09-05 10:47 | 35.42194 | 34.15570 | 22752 ft | 424 kts | 359° |
| 2025-09-05 10:48 | 35.51097 | 34.16154 | 24364 ft | 433 kts | 359° |
| 2025-09-05 10:49 | 35.57135 | 34.16552 | 25319 ft | 441 kts | 359° |
| 2025-09-05 10:50 | 35.75729 | 34.29816 | 28324 ft | 486 kts | 63° |
| 2025-09-05 10:53 | 35.88890 | 34.64585 | 31832 ft | 513 kts | 64° |
| 2025-09-05 10:55 | 36.01544 | 34.97050 | 34534 ft | 534 kts | 64° |
| 2025-09-05 10:57 | 36.14330 | 35.30087 | 37198 ft | 538 kts | 64° |
| 2025-09-05 10:59 | 36.27175 | 35.63619 | 38002 ft | 544 kts | 65° |
| 2025-09-05 11:01 | 36.40042 | 35.97567 | 37979 ft | 545 kts | 65° |
| 2025-09-05 11:03 | 36.52824 | 36.31654 | 37990 ft | 545 kts | 65° |
| 2025-09-05 11:05 | 36.65490 | 36.65807 | 38025 ft | 545 kts | 66° |
| 2025-09-05 11:07 | 36.78072 | 37.00109 | 38022 ft | 545 kts | 66° |
| 2025-09-05 11:09 | 36.90556 | 37.34523 | 38066 ft | 545 kts | 66° |
| 2025-09-05 11:11 | 37.02927 | 37.69069 | 38059 ft | 546 kts | 66° |
| 2025-09-05 11:13 | 37.15342 | 38.03678 | 38062 ft | 547 kts | 66° |
| 2025-09-05 11:15 | 37.27694 | 38.38583 | 38063 ft | 548 kts | 66° |
| 2025-09-05 11:17 | 37.39935 | 38.73569 | 38053 ft | 548 kts | 67° |
| 2025-09-05 11:19 | 37.51815 | 39.08889 | 38059 ft | 549 kts | 68° |
| 2025-09-05 11:21 | 37.63268 | 39.44529 | 38065 ft | 550 kts | 68° |
| 2025-09-05 11:22 | 37.73259 | 39.75914 | 38057 ft | 554 kts | 68° |
| 2025-09-05 11:25 | 37.86038 | 40.16553 | 38041 ft | 554 kts | 67° |
| 2025-09-05 11:26 | 38.01576 | 40.44037 | 38048 ft | 551 kts | 50° |
| 2025-09-05 11:29 | 38.22402 | 40.78801 | 38031 ft | 551 kts | 51° |
| 2025-09-05 11:31 | 38.41278 | 41.09620 | 38628 ft | 554 kts | 50° |
| 2025-09-05 11:33 | 38.52589 | 41.44800 | 39172 ft | 546 kts | 101° |
| 2025-09-05 11:34 | 38.44638 | 41.76402 | 39167 ft | 538 kts | 111° |
| 2025-09-05 11:37 | 38.36158 | 42.17871 | 39165 ft | 539 kts | 110° |
| 2025-09-05 11:38 | 38.29590 | 42.49532 | 39162 ft | 540 kts | 110° |
| 2025-09-05 11:41 | 38.20849 | 42.90966 | 39143 ft | 539 kts | 110° |
| 2025-09-05 11:42 | 38.13966 | 43.23047 | 39208 ft | 539 kts | 110° |
| 2025-09-05 11:45 | 38.01923 | 43.62310 | 39214 ft | 529 kts | 120° |
| 2025-09-05 11:46 | 37.91378 | 43.91880 | 39202 ft | 528 kts | 121° |
| 2025-09-05 11:49 | 37.77704 | 44.29789 | 39250 ft | 527 kts | 121° |
| 2025-09-05 11:50 | 37.70997 | 44.61157 | 39260 ft | 539 kts | 101° |
| 2025-09-05 11:53 | 37.69028 | 45.03820 | 39199 ft | 544 kts | 91° |
| 2025-09-05 11:54 | 37.76947 | 45.35769 | 39155 ft | 551 kts | 69° |
| 2025-09-05 11:57 | 37.89124 | 45.76586 | 39147 ft | 553 kts | 70° |
| 2025-09-05 11:58 | 38.03049 | 46.05065 | 39184 ft | 548 kts | 44° |
| 2025-09-05 12:01 | 38.26999 | 46.35973 | 39189 ft | 546 kts | 39° |
| 2025-09-05 12:02 | 38.46338 | 46.59185 | 39158 ft | 548 kts | 39° |
| 2025-09-05 12:05 | 38.71113 | 46.89259 | 39141 ft | 549 kts | 39° |
| 2025-09-05 12:06 | 38.90392 | 47.12814 | 39131 ft | 549 kts | 39° |
| 2025-09-05 12:09 | 39.15201 | 47.43404 | 39111 ft | 550 kts | 39° |
| 2025-09-05 12:10 | 39.34418 | 47.67321 | 38652 ft | 542 kts | 39° |
| 2025-09-05 12:12 | 39.56245 | 47.94816 | 31853 ft | 537 kts | 44° |
| 2025-09-05 12:14 | 39.70757 | 48.27369 | 27015 ft | 506 kts | 60° |
| 2025-09-05 12:16 | 39.78548 | 48.47106 | 24078 ft | 479 kts | 60° |
| 2025-09-05 12:16 | 39.81538 | 48.54694 | 22920 ft | 467 kts | 60° |
| 2025-09-05 12:16 | 39.83013 | 48.58444 | 22340 ft | 461 kts | 61° |
| 2025-09-05 12:17 | 39.85888 | 48.65765 | 21199 ft | 449 kts | 62° |
| 2025-09-05 12:17 | 39.88678 | 48.72884 | 20066 ft | 438 kts | 62° |
| 2025-09-05 12:18 | 39.91402 | 48.79849 | 18956 ft | 426 kts | 62° |
| 2025-09-05 12:18 | 39.94047 | 48.86630 | 17867 ft | 415 kts | 62° |
| 2025-09-05 12:19 | 39.96631 | 48.93267 | 16795 ft | 405 kts | 62° |
| 2025-09-05 12:20 | 40.00367 | 49.02890 | 15233 ft | 388 kts | 62° |
| 2025-09-05 12:20 | 40.01570 | 49.05995 | 14726 ft | 382 kts | 62° |
| 2025-09-05 12:20 | 40.03923 | 49.12080 | 13740 ft | 371 kts | 62° |
| 2025-09-05 12:21 | 40.06205 | 49.17999 | 12776 ft | 360 kts | 62° |
| 2025-09-05 12:21 | 40.08396 | 49.23697 | 12304 ft | 335 kts | 62° |
| 2025-09-05 12:22 | 40.10393 | 49.28899 | 12111 ft | 308 kts | 61° |
| 2025-09-05 12:22 | 40.11602 | 49.34054 | 11810 ft | 292 kts | 83° |
| 2025-09-05 12:23 | 40.11904 | 49.39306 | 11146 ft | 291 kts | 85° |
| 2025-09-05 12:24 | 40.12309 | 49.47141 | 10215 ft | 285 kts | 85° |
| 2025-09-05 12:24 | 40.12441 | 49.49702 | 9916 ft | 282 kts | 85° |
| 2025-09-05 12:24 | 40.12702 | 49.54771 | 9326 ft | 276 kts | 85° |
| 2025-09-05 12:25 | 40.12955 | 49.59714 | 8751 ft | 270 kts | 85° |
| 2025-09-05 12:25 | 40.13201 | 49.64571 | 8187 ft | 265 kts | 85° |
| 2025-09-05 12:26 | 40.13439 | 49.69309 | 7637 ft | 260 kts | 86° |
| 2025-09-05 12:26 | 40.13501 | 49.73992 | 7089 ft | 255 kts | 105° |
| 2025-09-05 12:27 | 40.11605 | 49.77639 | 6997 ft | 237 kts | 134° |
| 2025-09-05 12:28 | 40.08070 | 49.82148 | 7001 ft | 237 kts | 135° |
| 2025-09-05 12:28 | 40.06879 | 49.83653 | 7000 ft | 237 kts | 134° |
| 2025-09-05 12:28 | 40.05177 | 49.87294 | 7000 ft | 236 kts | 115° |
| 2025-09-05 12:29 | 40.03753 | 49.91148 | 7001 ft | 236 kts | 115° |
| 2025-09-05 12:29 | 40.02321 | 49.94989 | 7001 ft | 236 kts | 115° |
| 2025-09-05 12:30 | 40.01489 | 49.99097 | 7000 ft | 235 kts | 96° |
| 2025-09-05 12:30 | 40.01159 | 50.03324 | 7001 ft | 234 kts | 95° |
| 2025-09-05 12:31 | 40.00820 | 50.07556 | 7000 ft | 234 kts | 95° |
| 2025-09-05 12:31 | 40.00914 | 50.11765 | 6999 ft | 234 kts | 77° |
| 2025-09-05 12:32 | 40.02094 | 50.17938 | 7000 ft | 233 kts | 76° |
| 2025-09-05 12:32 | 40.02481 | 50.19978 | 7000 ft | 233 kts | 76° |
| 2025-09-05 12:33 | 40.03484 | 50.23987 | 7001 ft | 233 kts | 59° |
| 2025-09-05 12:33 | 40.05274 | 50.27523 | 7000 ft | 233 kts | 56° |
| 2025-09-05 12:34 | 40.07108 | 50.30996 | 6996 ft | 233 kts | 46° |
| 2025-09-05 12:34 | 40.10076 | 50.32172 | 6921 ft | 236 kts | 345° |
| 2025-09-05 12:35 | 40.12799 | 50.29787 | 6379 ft | 239 kts | 319° |
| 2025-09-05 12:36 | 40.16479 | 50.25423 | 5654 ft | 237 kts | 319° |
| 2025-09-05 12:36 | 40.17692 | 50.23989 | 5421 ft | 236 kts | 319° |
| 2025-09-05 12:36 | 40.20084 | 50.21159 | 4972 ft | 225 kts | 319° |
| 2025-09-05 12:37 | 40.22298 | 50.18537 | 4539 ft | 206 kts | 320° |
| 2025-09-05 12:37 | 40.24363 | 50.16089 | 4144 ft | 193 kts | 320° |
| 2025-09-05 12:38 | 40.26316 | 50.13774 | 3774 ft | 189 kts | 321° |
| 2025-09-05 12:38 | 40.28272 | 50.11452 | 3398 ft | 188 kts | 321° |
| 2025-09-05 12:39 | 40.30233 | 50.09194 | 3038 ft | 184 kts | 332° |
| 2025-09-05 12:40 | 40.33788 | 50.07842 | 2368 ft | 169 kts | 350° |
| 2025-09-05 12:40 | 40.36022 | 50.07140 | 1947 ft | 156 kts | 350° |
| 2025-09-05 12:40 | 40.37046 | 50.06818 | 1758 ft | 149 kts | 350° |
| 2025-09-05 12:41 | 40.39032 | 50.06198 | 1378 ft | 144 kts | 349° |
| 2025-09-05 12:41 | 40.40980 | 50.05587 | 991 ft | 144 kts | 349° |
| 2025-09-05 12:42 | 40.42920 | 50.04979 | 602 ft | 145 kts | 349° |
| 2025-09-05 12:42 | 40.44864 | 50.04386 | 219 ft | 142 kts | 350° |
| 2025-09-05 12:43 | 40.46684 | 50.03823 | 23 ft | 111 kts | 346° |
| 2025-09-05 12:44 | 40.47674 | 50.03578 | 23 ft | 15 kts | 73° |
| 2025-09-05 12:44 | 40.47617 | 50.03672 | 23 ft | 15 kts | 173° |
| 2025-09-05 12:44 | 40.47394 | 50.03752 | 23 ft | 17 kts | 160° |
| 2025-09-05 12:45 | 40.47197 | 50.03849 | 23 ft | 18 kts | 159° |
| 2025-09-05 12:46 | 40.46832 | 50.04028 | 23 ft | 17 kts | 159° |
| 2025-09-05 12:46 | 40.46714 | 50.04086 | 23 ft | 18 kts | 160° |
| 2025-09-05 12:46 | 40.46497 | 50.04190 | 23 ft | 17 kts | 160° |
| 2025-09-05 12:47 | 40.46258 | 50.04304 | 23 ft | 19 kts | 160° |
| 2025-09-05 12:48 | 40.45869 | 50.04496 | 23 ft | 20 kts | 159° |
| 2025-09-05 12:48 | 40.45748 | 50.04556 | 23 ft | 16 kts | 155° |
| 2025-09-05 12:49 | 40.45951 | 50.04807 | 23 ft | 17 kts | 21° |
| 2025-09-05 12:49 | 40.46064 | 50.04835 | 23 ft | 16 kts | 339° |
| 2025-09-05 12:50 | 40.46406 | 50.04758 | 23 ft | 14 kts | 27° |
| 2025-09-05 12:50 | 40.46467 | 50.04800 | 23 ft | 10 kts | 27° |
| 2025-09-05 12:50 | 40.46621 | 50.04959 | 23 ft | 16 kts | 30° |
| 2025-09-05 12:51 | 40.46730 | 50.05029 | 23 ft | 5 kts | 23° |
| 2025-09-05 12:51 | 40.46790 | 50.05050 | 23 ft | 12 kts | 12° |
| 2025-09-05 12:52 | 40.46831 | 50.05171 | 23 ft | 11 kts | 88° |
| 2025-09-05 12:53 | 40.46674 | 50.05476 | 23 ft | 3 kts | 151° |
| 2025-09-05 12:53 | 40.46646 | 50.05496 | 23 ft | 4 kts | 152° |
| 2025-09-05 12:53 | 40.46601 | 50.05465 | 23 ft | 7 kts | 257° |
| 2025-09-05 12:54 | 40.46605 | 50.05405 | 23 ft | 0 kts | 278° |